Time;durP1;ratioP1;P1;durP2;ratioP2;P2;SDS_P1;SDS_P2;PMS_P1;PMS_P2;Temp;Humidity;BMP_temperature;BMP_pressure;BME280_temperature;BME280_humidity;BME280_pressure;Samples;Min_cycle;Max_cycle;Signal;HPM_P1;HPM_P2
2023/05/07 00:02:00;;;;;;;22.60;14.27;;;13.20;99.90;;;;;;5043653;28;20526;-74
2023/05/07 00:04:27;;;;;;;19.13;14.35;;;13.20;99.90;;;;;;4998642;28;214781;-76
2023/05/07 00:06:55;;;;;;;21.73;14.65;;;13.20;99.90;;;;;;5074618;28;20059;-75
2023/05/07 00:09:21;;;;;;;22.35;15.25;;;13.10;99.90;;;;;;5002060;28;209937;-74
2023/05/07 00:11:47;;;;;;;24.92;16.40;;;13.10;99.90;;;;;;5066004;28;20044;-75
2023/05/07 00:14:13;;;;;;;24.63;16.45;;;13.10;99.90;;;;;;5000525;28;207869;-76
2023/05/07 00:16:39;;;;;;;22.88;16.23;;;13.10;99.90;;;;;;5067338;28;20418;-75
2023/05/07 00:19:05;;;;;;;24.20;15.98;;;13.10;99.90;;;;;;4995810;28;206905;-74
2023/05/07 00:21:31;;;;;;;26.10;15.95;;;13.00;99.90;;;;;;5066234;28;20075;-75
2023/05/07 00:23:57;;;;;;;23.52;16.60;;;13.00;99.90;;;;;;5012179;28;217465;-75
2023/05/07 00:26:23;;;;;;;24.42;16.48;;;13.00;99.90;;;;;;5071330;28;20052;-76
2023/05/07 00:28:50;;;;;;;26.77;18.08;;;13.00;99.90;;;;;;5017269;28;207143;-76
2023/05/07 00:31:16;;;;;;;26.55;18.58;;;13.00;99.90;;;;;;5069469;28;20048;-75
2023/05/07 00:33:42;;;;;;;26.58;17.58;;;13.00;99.90;;;;;;5024171;28;205946;-76
2023/05/07 00:36:08;;;;;;;24.70;17.90;;;12.90;99.90;;;;;;5079703;28;20434;-76
2023/05/07 00:38:34;;;;;;;27.15;18.50;;;12.90;99.90;;;;;;5007672;28;212753;-76
2023/05/07 00:41:02;;;;;;;24.92;18.27;;;12.90;99.90;;;;;;5053204;28;20419;-77
2023/05/07 00:43:28;;;;;;;29.27;20.05;;;12.90;99.90;;;;;;4999772;28;211073;-76
2023/05/07 00:45:55;;;;;;;27.98;19.40;;;12.80;99.90;;;;;;5076313;28;20052;-77
2023/05/07 00:48:21;;;;;;;28.48;19.20;;;12.80;99.90;;;;;;5015047;28;212184;-77
2023/05/07 00:50:47;;;;;;;28.98;19.60;;;12.80;99.90;;;;;;5070346;28;20052;-77
2023/05/07 00:53:14;;;;;;;25.98;19.52;;;12.80;99.90;;;;;;5001297;28;211295;-76
2023/05/07 00:55:40;;;;;;;31.83;21.73;;;12.80;99.90;;;;;;5065038;28;20059;-77
2023/05/07 00:58:06;;;;;;;29.13;20.60;;;12.80;99.90;;;;;;5006168;28;213605;-76
2023/05/07 01:00:32;;;;;;;30.42;20.42;;;12.70;99.90;;;;;;5050704;28;20070;-76
2023/05/07 01:02:58;;;;;;;28.20;19.92;;;12.70;99.90;;;;;;5033608;28;214073;-72
2023/05/07 01:05:26;;;;;;;27.85;20.73;;;12.70;99.90;;;;;;5062323;28;20059;-76
2023/05/07 01:07:54;;;;;;;30.58;22.08;;;12.60;99.90;;;;;;5075166;28;20060;-77
2023/05/07 01:10:21;;;;;;;30.23;22.27;;;12.70;99.90;;;;;;5004144;28;209856;-76
2023/05/07 01:12:49;;;;;;;31.75;21.92;;;12.60;99.90;;;;;;5074518;28;21192;-76
2023/05/07 01:15:16;;;;;;;29.52;21.25;;;12.60;99.90;;;;;;5011872;28;207026;-76
2023/05/07 01:17:43;;;;;;;30.60;21.98;;;12.50;99.90;;;;;;5075679;28;20052;-76
2023/05/07 01:20:10;;;;;;;28.52;21.83;;;12.50;99.90;;;;;;5000967;28;213264;-76
2023/05/07 01:22:37;;;;;;;33.00;21.75;;;12.50;99.90;;;;;;5094061;28;20045;-76
2023/05/07 01:25:05;;;;;;;30.13;21.58;;;12.50;99.90;;;;;;5021600;28;212644;-76
2023/05/07 01:27:33;;;;;;;29.15;22.00;;;12.50;99.90;;;;;;5076250;28;20052;-78
2023/05/07 01:29:59;;;;;;;29.73;23.00;;;12.40;99.90;;;;;;4997313;28;210145;-76
2023/05/07 01:32:37;;;;;;;32.15;22.23;;;12.40;99.90;;;;;;5076683;28;20059;-77
2023/05/07 01:35:07;;;;;;;32.50;22.70;;;12.30;99.90;;;;;;5001918;28;205925;-76
2023/05/07 01:37:33;;;;;;;33.75;23.90;;;12.30;99.90;;;;;;5078203;28;20067;-78
2023/05/07 01:40:02;;;;;;;34.30;24.63;;;12.30;99.90;;;;;;5018080;28;210277;-76
2023/05/07 01:42:29;;;;;;;32.33;23.63;;;12.30;99.90;;;;;;5077537;28;20050;-77
2023/05/07 01:44:55;;;;;;;34.42;23.42;;;12.30;99.90;;;;;;4995464;28;153391;-77
2023/05/07 01:47:22;;;;;;;34.35;24.20;;;12.30;99.90;;;;;;5076074;28;20435;-77
2023/05/07 01:49:49;;;;;;;33.85;23.92;;;12.30;99.90;;;;;;5003052;28;218752;-77
2023/05/07 01:52:15;;;;;;;30.58;23.77;;;12.20;99.90;;;;;;5075940;28;20053;-77
2023/05/07 01:54:42;;;;;;;34.30;24.23;;;12.20;99.90;;;;;;5002064;28;216225;-76
2023/05/07 01:57:08;;;;;;;34.90;25.13;;;12.20;99.90;;;;;;5075415;28;20047;-76
2023/05/07 01:59:34;;;;;;;31.67;24.38;;;12.10;99.90;;;;;;4997135;28;233886;-77
2023/05/07 02:02:00;;;;;;;34.53;24.60;;;12.10;99.90;;;;;;5075466;28;20093;-77
2023/05/07 02:04:27;;;;;;;30.73;23.15;;;12.10;99.90;;;;;;4999763;28;208696;-77
2023/05/07 02:06:53;;;;;;;32.50;25.23;;;12.00;99.90;;;;;;5072543;28;20610;-75
2023/05/07 02:09:19;;;;;;;31.67;24.05;;;12.00;99.90;;;;;;5003878;28;164145;-76
2023/05/07 02:11:45;;;;;;;34.10;24.17;;;12.00;99.90;;;;;;5065644;28;20051;-76
2023/05/07 02:14:11;;;;;;;33.15;24.70;;;11.90;99.90;;;;;;5013463;28;211875;-77
2023/05/07 02:16:37;;;;;;;35.80;26.38;;;11.90;99.90;;;;;;5067996;28;20519;-76
2023/05/07 02:19:03;;;;;;;33.40;24.85;;;11.90;99.90;;;;;;5031529;28;209547;-77
2023/05/07 02:21:30;;;;;;;32.63;24.42;;;11.90;99.90;;;;;;5083388;28;20063;-76
2023/05/07 02:23:56;;;;;;;33.25;25.77;;;11.80;99.90;;;;;;5020233;28;209775;-76
2023/05/07 02:26:22;;;;;;;32.83;25.65;;;11.80;99.90;;;;;;5070868;28;20410;-75
2023/05/07 02:28:48;;;;;;;34.42;25.40;;;11.80;99.90;;;;;;5010401;28;211807;-77
2023/05/07 02:31:14;;;;;;;36.10;25.58;;;11.80;99.90;;;;;;5058112;28;20071;-76
2023/05/07 02:33:40;;;;;;;40.30;27.90;;;11.80;99.90;;;;;;5008293;28;168609;-76
2023/05/07 02:36:10;;;;;;;34.03;26.23;;;11.80;99.90;;;;;;5069738;28;20557;-76
2023/05/07 02:38:37;;;;;;;35.05;27.23;;;11.80;99.90;;;;;;5044820;27;203738;-75
2023/05/07 02:41:03;;;;;;;35.10;26.10;;;11.80;99.90;;;;;;5043809;28;20051;-76
2023/05/07 02:43:29;;;;;;;36.42;26.95;;;11.70;99.90;;;;;;5004080;28;212005;-77
2023/05/07 02:46:06;;;;;;;37.30;27.50;;;11.70;99.90;;;;;;5070180;28;20089;-76
2023/05/07 02:48:33;;;;;;;37.28;27.95;;;11.70;99.90;;;;;;5004979;28;214419;-76
2023/05/07 02:51:00;;;;;;;37.50;28.60;;;11.70;99.90;;;;;;5045409;28;20052;-77
2023/05/07 02:53:26;;;;;;;36.95;28.25;;;11.70;99.90;;;;;;5008564;28;221273;-76
2023/05/07 02:55:57;;;;;;;36.10;28.02;;;11.60;99.90;;;;;;5060022;28;20052;-77
2023/05/07 02:58:23;;;;;;;36.05;27.55;;;11.60;99.90;;;;;;5000145;28;198514;-77
2023/05/07 03:00:50;;;;;;;39.47;29.55;;;11.60;99.90;;;;;;5064495;28;20055;-76
2023/05/07 03:03:16;;;;;;;39.33;28.98;;;11.50;99.90;;;;;;5017655;28;212475;-76
2023/05/07 03:05:42;;;;;;;38.22;28.50;;;11.50;99.90;;;;;;5052984;28;20056;-76
2023/05/07 03:08:09;;;;;;;40.43;30.10;;;11.50;99.90;;;;;;5013909;28;214895;-75
2023/05/07 03:10:36;;;;;;;40.97;29.40;;;11.50;99.90;;;;;;5060560;28;20052;-75
2023/05/07 03:13:03;;;;;;;42.20;30.97;;;11.50;99.90;;;;;;5020911;28;210055;-76
2023/05/07 03:15:29;;;;;;;42.53;31.17;;;11.50;99.90;;;;;;5092959;28;20060;-76
2023/05/07 03:17:55;;;;;;;40.08;29.73;;;11.50;99.90;;;;;;5060392;28;214950;-77
2023/05/07 03:20:22;;;;;;;40.42;31.02;;;11.50;99.90;;;;;;5032898;28;20059;-76
2023/05/07 03:22:48;;;;;;;42.03;30.45;;;11.50;99.90;;;;;;5076594;28;20052;-75
2023/05/07 03:25:14;;;;;;;46.05;32.85;;;11.50;99.90;;;;;;5019642;28;220233;-75
2023/05/07 03:27:43;;;;;;;48.97;33.25;;;11.40;99.90;;;;;;5057951;28;20054;-75
2023/05/07 03:30:10;;;;;;;46.38;31.65;;;11.40;99.90;;;;;;5008280;28;206377;-75
2023/05/07 03:32:37;;;;;;;51.03;33.85;;;11.40;99.90;;;;;;5074324;28;20056;-75
2023/05/07 03:35:03;;;;;;;46.08;33.15;;;11.40;99.90;;;;;;4984408;28;213168;-75
2023/05/07 03:37:29;;;;;;;45.45;33.42;;;11.40;99.90;;;;;;5051259;28;20045;-75
2023/05/07 03:39:56;;;;;;;51.88;33.78;;;11.40;99.90;;;;;;4997451;28;211681;-75
2023/05/07 03:42:22;;;;;;;49.15;34.85;;;11.40;99.90;;;;;;5057112;28;20049;-75
2023/05/07 03:44:48;;;;;;;46.85;33.80;;;11.40;99.90;;;;;;4997404;28;206293;-75
2023/05/07 03:47:14;;;;;;;51.63;34.83;;;11.40;99.90;;;;;;5068349;28;20055;-74
2023/05/07 03:49:40;;;;;;;50.25;33.80;;;11.40;99.90;;;;;;5003995;28;210114;-74
2023/05/07 03:52:06;;;;;;;46.72;32.17;;;11.30;99.90;;;;;;5065445;28;20435;-75
2023/05/07 03:54:33;;;;;;;47.25;33.72;;;11.40;99.90;;;;;;4989474;28;204926;-75
2023/05/07 03:56:59;;;;;;;53.35;35.28;;;11.40;99.90;;;;;;5059950;28;20056;-75
2023/05/07 03:59:25;;;;;;;47.80;34.40;;;11.40;99.90;;;;;;4971429;28;210221;-75
2023/05/07 04:01:51;;;;;;;45.85;33.83;;;11.40;99.90;;;;;;5064311;28;20056;-75
2023/05/07 04:04:17;;;;;;;48.80;33.80;;;11.40;99.90;;;;;;5014844;28;210001;-75
2023/05/07 04:06:43;;;;;;;49.97;34.25;;;11.40;99.90;;;;;;5074404;28;20499;-75
2023/05/07 04:09:09;;;;;;;47.10;33.75;;;11.40;99.90;;;;;;5005332;28;205440;-76
2023/05/07 04:11:35;;;;;;;46.28;32.47;;;11.30;99.90;;;;;;5055233;28;20052;-75
2023/05/07 04:14:02;;;;;;;49.53;34.00;;;11.30;99.90;;;;;;5004275;28;211264;-75
2023/05/07 04:16:28;;;;;;;52.53;36.42;;;11.40;99.90;;;;;;5040168;28;20052;-76
2023/05/07 04:18:54;;;;;;;45.80;33.22;;;11.30;99.90;;;;;;5007879;28;213100;-74
2023/05/07 04:21:21;;;;;;;48.15;34.17;;;11.30;99.90;;;;;;5064778;28;20064;-74
2023/05/07 04:23:47;;;;;;;46.85;33.47;;;11.30;99.90;;;;;;4996199;28;213561;-74
2023/05/07 04:26:15;;;;;;;50.15;33.97;;;11.30;99.90;;;;;;5057005;28;20418;-75
2023/05/07 04:28:41;;;;;;;50.58;35.28;;;11.20;99.90;;;;;;4999183;28;207114;-75
2023/05/07 04:31:07;;;;;;;45.05;32.67;;;11.20;99.90;;;;;;5078367;28;20064;-74
2023/05/07 04:33:34;;;;;;;49.40;34.70;;;11.20;99.90;;;;;;5011939;28;206182;-74
2023/05/07 04:36:04;;;;;;;47.28;33.15;;;11.20;99.90;;;;;;5061752;28;20051;-75
2023/05/07 04:38:31;;;;;;;46.42;33.60;;;11.20;99.90;;;;;;5020928;28;214915;-74
2023/05/07 04:41:02;;;;;;;48.92;32.60;;;11.20;99.90;;;;;;5058400;28;20056;-75
2023/05/07 04:43:28;;;;;;;47.65;33.88;;;11.20;99.90;;;;;;5019646;28;208390;-75
2023/05/07 04:45:54;;;;;;;47.50;33.10;;;11.20;99.90;;;;;;5060795;28;20052;-74
2023/05/07 04:48:21;;;;;;;48.75;34.03;;;11.30;99.90;;;;;;5017845;28;211019;-75
2023/05/07 04:50:48;;;;;;;45.17;33.40;;;11.20;99.90;;;;;;5069633;28;20048;-75
2023/05/07 04:53:14;;;;;;;47.88;33.63;;;11.20;99.90;;;;;;5010686;28;223633;-76
2023/05/07 04:55:40;;;;;;;45.72;32.53;;;11.20;99.90;;;;;;5074663;28;20052;-76
2023/05/07 04:58:07;;;;;;;44.67;32.40;;;11.20;99.90;;;;;;4996604;28;218669;-75
2023/05/07 05:00:33;;;;;;;45.22;31.45;;;11.20;99.90;;;;;;5060145;28;20621;-75
2023/05/07 05:02:59;;;;;;;45.92;32.75;;;11.20;99.90;;;;;;5030636;28;213502;-74
2023/05/07 05:05:25;;;;;;;45.53;32.03;;;11.30;99.90;;;;;;5048265;28;20047;-75
2023/05/07 05:07:55;;;;;;;44.70;32.53;;;11.30;99.90;;;;;;5079474;28;20055;-75
2023/05/07 05:10:22;;;;;;;43.38;29.60;;;11.30;99.90;;;;;;5014977;28;209746;-72
2023/05/07 05:12:48;;;;;;;42.42;31.63;;;11.30;99.90;;;;;;5079446;28;20677;-73
2023/05/07 05:15:14;;;;;;;43.35;30.95;;;11.30;99.90;;;;;;4993485;28;206364;-72
2023/05/07 05:17:40;;;;;;;43.67;31.17;;;11.40;99.90;;;;;;5074581;28;20434;-73
2023/05/07 05:20:07;;;;;;;43.90;31.40;;;11.40;99.90;;;;;;4992098;28;209838;-72
2023/05/07 05:22:33;;;;;;;41.90;30.73;;;11.50;99.90;;;;;;5072372;28;20130;-73
2023/05/07 05:25:00;;;;;;;42.17;30.20;;;11.40;99.90;;;;;;5000854;28;208984;-72
2023/05/07 05:27:26;;;;;;;41.17;30.65;;;11.40;99.90;;;;;;5085945;28;20040;-72
2023/05/07 05:29:52;;;;;;;38.33;28.75;;;11.40;99.90;;;;;;5016028;28;208097;-72
2023/05/07 05:32:18;;;;;;;39.35;27.05;;;11.40;99.90;;;;;;5077112;28;20047;-72
2023/05/07 05:34:45;;;;;;;43.13;30.48;;;11.30;99.90;;;;;;5022884;28;223142;-73
2023/05/07 05:37:11;;;;;;;40.80;28.75;;;11.30;99.90;;;;;;5074910;28;20052;-73
2023/05/07 05:39:37;;;;;;;38.83;28.35;;;11.30;99.90;;;;;;4999920;28;206040;-74
2023/05/07 05:42:04;;;;;;;37.72;28.15;;;11.30;99.90;;;;;;5058841;28;20052;-74
2023/05/07 05:44:30;;;;;;;36.20;27.02;;;11.40;99.90;;;;;;4984835;28;209125;-73
2023/05/07 05:46:57;;;;;;;39.30;27.00;;;11.40;99.90;;;;;;5057633;28;20063;-73
2023/05/07 05:49:23;;;;;;;35.35;26.40;;;11.40;99.90;;;;;;5003105;28;206327;-73
2023/05/07 05:51:49;;;;;;;38.58;26.77;;;11.40;99.90;;;;;;5057902;28;20056;-72
2023/05/07 05:54:15;;;;;;;35.13;26.63;;;11.50;99.90;;;;;;5007073;28;213486;-72
2023/05/07 05:56:42;;;;;;;36.58;27.05;;;11.50;99.90;;;;;;5055868;28;20048;-72
2023/05/07 05:59:08;;;;;;;35.10;26.40;;;11.60;99.90;;;;;;4975400;28;209218;-72
2023/05/07 06:01:34;;;;;;;34.58;25.80;;;11.60;99.90;;;;;;5058546;28;20049;-72
2023/05/07 06:04:00;;;;;;;32.53;24.55;;;11.60;99.90;;;;;;4999814;28;212222;-73
2023/05/07 06:06:27;;;;;;;33.72;25.27;;;11.60;99.90;;;;;;5053170;28;20059;-72
2023/05/07 06:08:53;;;;;;;33.42;25.17;;;11.60;99.90;;;;;;4995383;28;208186;-71
2023/05/07 06:11:19;;;;;;;31.95;25.40;;;11.60;99.90;;;;;;5048723;28;20048;-71
2023/05/07 06:13:46;;;;;;;35.20;25.00;;;11.60;99.90;;;;;;5001897;28;216730;-72
2023/05/07 06:16:12;;;;;;;35.80;25.85;;;11.60;99.90;;;;;;5056292;28;20040;-71
2023/05/07 06:18:38;;;;;;;30.60;24.30;;;11.70;99.90;;;;;;5004696;28;211074;-72
2023/05/07 06:21:04;;;;;;;31.27;24.65;;;11.60;99.90;;;;;;5065998;28;20058;-72
2023/05/07 06:23:30;;;;;;;32.03;25.15;;;11.70;99.90;;;;;;5013332;28;227953;-71
2023/05/07 06:25:56;;;;;;;33.38;25.00;;;11.70;99.90;;;;;;5051458;28;20056;-72
2023/05/07 06:28:22;;;;;;;30.50;23.85;;;11.70;99.90;;;;;;5014510;28;205218;-72
2023/05/07 06:30:49;;;;;;;31.42;24.42;;;11.80;99.90;;;;;;5081813;28;20063;-72
2023/05/07 06:33:16;;;;;;;31.27;24.52;;;11.80;99.90;;;;;;5017938;28;211360;-72
2023/05/07 06:35:42;;;;;;;32.97;23.60;;;11.80;99.90;;;;;;5072190;28;20048;-72
2023/05/07 06:38:08;;;;;;;33.45;24.60;;;11.80;99.90;;;;;;5004437;28;213091;-72
2023/05/07 06:40:34;;;;;;;30.05;24.25;;;11.80;99.90;;;;;;5058419;28;21833;-72
2023/05/07 06:43:00;;;;;;;31.95;24.42;;;11.90;99.90;;;;;;5013353;28;211146;-72
2023/05/07 06:45:26;;;;;;;32.90;25.30;;;11.90;99.90;;;;;;5039535;28;20614;-71
2023/05/07 06:47:52;;;;;;;35.35;26.33;;;12.00;99.90;;;;;;5056343;28;20052;-71
2023/05/07 06:50:18;;;;;;;34.17;24.92;;;12.00;99.90;;;;;;4994093;28;205203;-71
2023/05/07 06:52:45;;;;;;;31.85;23.80;;;12.10;99.90;;;;;;5055643;28;20419;-71
2023/05/07 06:55:11;;;;;;;32.88;24.83;;;12.10;99.90;;;;;;5013265;28;215301;-72
2023/05/07 06:57:37;;;;;;;33.42;24.90;;;12.20;99.90;;;;;;5075017;28;20051;-71
2023/05/07 07:00:06;;;;;;;31.48;24.90;;;12.20;99.90;;;;;;4990950;28;274517;-72
2023/05/07 07:02:32;;;;;;;31.63;23.65;;;12.30;99.90;;;;;;5071196;28;20063;-71
2023/05/07 07:04:58;;;;;;;33.95;24.73;;;12.30;99.90;;;;;;5002484;28;210787;-71
2023/05/07 07:07:25;;;;;;;30.08;23.83;;;12.40;99.90;;;;;;5052125;28;20044;-71
2023/05/07 07:09:51;;;;;;;33.00;24.40;;;12.40;99.90;;;;;;5003184;28;211771;-71
2023/05/07 07:12:17;;;;;;;35.20;25.70;;;12.50;99.90;;;;;;5055367;28;20049;-70
2023/05/07 07:14:43;;;;;;;30.65;24.15;;;12.40;99.90;;;;;;5017529;28;209443;-71
2023/05/07 07:17:09;;;;;;;32.35;24.55;;;12.40;99.90;;;;;;5064732;28;20028;-71
2023/05/07 07:19:35;;;;;;;30.67;24.45;;;12.50;99.90;;;;;;5011476;28;215872;-69
2023/05/07 07:22:01;;;;;;;30.27;24.35;;;12.40;99.90;;;;;;5070873;28;20060;-70
2023/05/07 07:24:27;;;;;;;35.05;24.75;;;12.40;99.90;;;;;;5001214;28;210001;-71
2023/05/07 07:26:55;;;;;;;32.80;24.38;;;12.50;99.90;;;;;;5068531;28;20047;-70
2023/05/07 07:29:21;;;;;;;31.23;24.10;;;12.60;99.90;;;;;;5003585;28;208008;-71
2023/05/07 07:31:49;;;;;;;30.20;24.30;;;12.60;99.90;;;;;;5066813;28;20059;-71
2023/05/07 07:34:15;;;;;;;33.55;24.60;;;12.60;99.90;;;;;;5015389;28;213141;-71
2023/05/07 07:36:41;;;;;;;34.53;25.13;;;12.50;99.90;;;;;;5065292;28;20051;-71
2023/05/07 07:39:08;;;;;;;33.70;25.60;;;12.50;99.90;;;;;;5020122;28;211649;-71
2023/05/07 07:41:34;;;;;;;31.83;24.02;;;12.60;99.90;;;;;;5081945;28;20423;-71
2023/05/07 07:44:00;;;;;;;33.28;22.88;;;12.50;99.90;;;;;;5007913;28;218679;-70
2023/05/07 07:46:26;;;;;;;32.95;25.38;;;12.60;99.90;;;;;;5075626;28;20043;-69
2023/05/07 07:48:53;;;;;;;31.75;25.02;;;12.70;99.90;;;;;;5019093;28;205815;-70
2023/05/07 07:51:22;;;;;;;29.98;23.55;;;12.70;99.90;;;;;;5071702;28;20049;-69
2023/05/07 07:53:48;;;;;;;30.38;24.52;;;12.70;99.90;;;;;;5019713;28;207328;-72
2023/05/07 07:56:14;;;;;;;36.15;24.38;;;12.80;99.90;;;;;;5073975;28;20052;-72
2023/05/07 07:58:42;;;;;;;31.60;24.75;;;12.90;99.90;;;;;;5011088;28;212129;-72
2023/05/07 08:01:08;;;;;;;32.17;24.98;;;12.90;99.90;;;;;;5063379;28;20060;-74
2023/05/07 08:03:35;;;;;;;31.45;24.83;;;13.10;99.90;;;;;;5013347;28;211125;-72
2023/05/07 08:06:01;;;;;;;32.38;24.65;;;13.30;99.90;;;;;;5095359;28;20509;-73
2023/05/07 08:08:27;;;;;;;31.17;23.88;;;13.40;99.90;;;;;;5012181;28;213463;-73
2023/05/07 08:10:53;;;;;;;31.67;25.63;;;13.50;99.90;;;;;;5074009;28;20083;-72
2023/05/07 08:13:19;;;;;;;32.28;25.70;;;13.70;99.90;;;;;;5017564;28;211338;-72
2023/05/07 08:15:45;;;;;;;32.95;24.73;;;13.80;99.90;;;;;;5090241;28;20055;-71
2023/05/07 08:18:11;;;;;;;32.05;24.40;;;13.90;99.90;;;;;;5020871;28;265147;-71
2023/05/07 08:20:39;;;;;;;32.97;25.60;;;14.10;99.90;;;;;;5064860;28;20514;-74
2023/05/07 08:23:08;;;;;;;33.17;24.65;;;14.20;99.90;;;;;;5023889;28;219786;-72
2023/05/07 08:25:35;;;;;;;32.17;23.70;;;14.40;99.90;;;;;;5059902;28;20056;-72
2023/05/07 08:28:01;;;;;;;31.23;23.75;;;14.60;99.90;;;;;;5018328;28;219848;-71
2023/05/07 08:30:27;;;;;;;30.42;23.23;;;14.70;99.90;;;;;;5061246;28;20057;-73
2023/05/07 08:32:53;;;;;;;28.75;23.35;;;14.70;99.90;;;;;;5075516;28;215836;-69
2023/05/07 08:35:20;;;;;;;27.08;20.70;;;14.90;99.90;;;;;;5006442;28;144904;-71
2023/05/07 08:37:46;;;;;;;28.88;22.42;;;14.80;99.90;;;;;;5054716;28;20055;-71
2023/05/07 08:40:12;;;;;;;29.95;23.45;;;14.80;99.90;;;;;;4983757;28;212730;-72
2023/05/07 08:42:41;;;;;;;26.50;21.77;;;14.60;99.90;;;;;;5062971;28;20101;-70
2023/05/07 08:45:11;;;;;;;30.33;23.50;;;14.60;99.90;;;;;;4998699;28;207034;-71
2023/05/07 08:47:58;;;;;;;29.30;23.33;;;14.80;99.90;;;;;;5059171;28;20053;-71
2023/05/07 08:50:26;;;;;;;30.48;23.00;;;14.90;99.90;;;;;;4986720;28;37994;-72
2023/05/07 08:52:52;;;;;;;29.98;22.80;;;14.90;99.90;;;;;;5057595;28;20060;-72
2023/05/07 08:55:18;;;;;;;27.02;21.70;;;15.40;99.90;;;;;;4992724;28;286838;-71
2023/05/07 08:57:44;;;;;;;28.38;22.38;;;15.70;99.90;;;;;;5058385;28;20048;-73
2023/05/07 09:00:11;;;;;;;27.35;22.60;;;15.80;99.90;;;;;;5010838;28;206327;-72
2023/05/07 09:02:37;;;;;;;26.17;21.30;;;16.00;99.90;;;;;;5079441;28;20052;-71
2023/05/07 09:05:04;;;;;;;26.15;21.45;;;16.20;99.90;;;;;;4993096;28;206210;-71
2023/05/07 09:07:31;;;;;;;27.33;21.73;;;16.60;99.90;;;;;;5084103;28;20403;-72
2023/05/07 09:09:57;;;;;;;26.55;21.65;;;16.80;99.90;;;;;;5026280;28;213145;-71
2023/05/07 09:12:23;;;;;;;26.75;21.08;;;16.80;99.90;;;;;;5075502;28;20056;-71
2023/05/07 09:14:50;;;;;;;26.20;21.15;;;17.00;99.90;;;;;;4991766;28;210722;-72
2023/05/07 09:17:16;;;;;;;23.55;20.40;;;17.10;99.90;;;;;;5065670;28;21258;-72
2023/05/07 09:19:45;;;;;;;28.30;20.70;;;17.40;99.90;;;;;;5010398;28;207625;-71
2023/05/07 09:22:11;;;;;;;25.65;21.00;;;17.60;99.90;;;;;;5066338;28;20106;-71
2023/05/07 09:24:38;;;;;;;23.67;19.92;;;18.60;99.90;;;;;;5015694;28;213326;-72
2023/05/07 09:27:09;;;;;;;22.70;18.48;;;18.50;99.90;;;;;;5086850;28;20053;-71
2023/05/07 09:29:35;;;;;;;23.58;18.58;;;18.60;99.90;;;;;;5004933;28;207995;-70
2023/05/07 09:32:07;;;;;;;22.95;18.02;;;18.40;99.90;;;;;;5068405;28;20052;-71
2023/05/07 09:34:34;;;;;;;21.95;18.25;;;18.70;99.90;;;;;;5019463;28;212993;-71
2023/05/07 09:37:04;;;;;;;21.75;18.42;;;18.80;99.90;;;;;;5081177;28;20083;-71
2023/05/07 09:39:45;;;;;;;22.10;17.70;;;19.30;99.90;;;;;;5005909;28;206154;-73
2023/05/07 09:42:12;;;;;;;21.48;17.42;;;19.40;99.90;;;;;;5078315;28;20052;-73
2023/05/07 09:44:38;;;;;;;22.10;16.20;;;19.50;99.90;;;;;;5015721;28;216098;-71
2023/05/07 09:47:06;;;;;;;21.55;18.10;;;20.00;99.90;;;;;;5078213;28;20063;-74
2023/05/07 09:49:35;;;;;;;21.17;17.30;;;19.80;99.90;;;;;;5029831;28;208870;-72
2023/05/07 09:52:05;;;;;;;20.33;16.38;;;19.90;99.90;;;;;;5068212;28;20055;-71
2023/05/07 09:54:33;;;;;;;21.13;17.13;;;20.20;99.90;;;;;;5000107;28;219471;-72
2023/05/07 09:57:02;;;;;;;20.20;16.30;;;20.40;99.90;;;;;;5073139;28;20087;-73
2023/05/07 09:59:31;;;;;;;19.10;15.82;;;20.40;99.90;;;;;;5000597;28;209580;-73
2023/05/07 10:01:58;;;;;;;21.17;15.82;;;20.80;99.90;;;;;;5069237;28;20507;-73
2023/05/07 10:04:26;;;;;;;19.15;15.60;;;20.70;99.90;;;;;;5017910;28;201159;-72
2023/05/07 10:06:53;;;;;;;19.33;15.27;;;21.00;99.90;;;;;;5073079;28;20067;-71
2023/05/07 10:09:20;;;;;;;19.83;15.88;;;21.40;99.90;;;;;;5023772;28;210645;-73
2023/05/07 10:11:49;;;;;;;18.60;14.85;;;21.90;99.90;;;;;;5070691;28;20063;-73
2023/05/07 10:14:15;;;;;;;18.15;14.48;;;22.60;99.90;;;;;;5022477;28;213919;-72
2023/05/07 10:16:43;;;;;;;18.05;14.73;;;22.80;99.90;;;;;;5070535;28;20059;-75
2023/05/07 10:19:12;;;;;;;18.65;14.38;;;22.20;99.90;;;;;;4996071;28;217442;-72
2023/05/07 10:21:43;;;;;;;17.88;14.27;;;22.20;99.90;;;;;;5051081;28;20056;-71
2023/05/07 10:24:15;;;;;;;26.08;14.18;;;22.30;99.90;;;;;;5004270;28;207138;-72
2023/05/07 10:26:49;;;;;;;17.98;13.98;;;22.10;99.20;;;;;;5068560;28;20104;-76
2023/05/07 10:29:33;;;;;;;18.42;13.98;;;21.90;99.90;;;;;;5024069;28;209166;-71
2023/05/07 10:32:19;;;;;;;19.23;13.80;;;22.00;99.40;;;;;;5077628;28;20059;-73
2023/05/07 10:34:49;;;;;;;17.88;13.07;;;22.20;99.90;;;;;;5010181;28;216510;-74
2023/05/07 10:37:16;;;;;;;16.50;13.27;;;22.50;99.90;;;;;;5071974;28;20056;-71
2023/05/07 10:39:42;;;;;;;16.85;13.27;;;23.00;99.90;;;;;;5024283;28;209439;-72
2023/05/07 10:42:13;;;;;;;16.65;12.73;;;23.10;99.40;;;;;;5074603;28;20048;-71
2023/05/07 10:44:39;;;;;;;16.08;12.40;;;23.00;99.80;;;;;;4997814;28;219117;-71
2023/05/07 10:47:09;;;;;;;15.93;12.60;;;23.10;99.20;;;;;;5075886;28;20048;-72
2023/05/07 10:49:41;;;;;;;15.05;12.07;;;23.30;99.70;;;;;;5013467;28;211235;-74
2023/05/07 10:52:15;;;;;;;18.23;11.52;;;23.40;99.30;;;;;;5059064;28;20051;-72
2023/05/07 10:54:45;;;;;;;16.02;12.65;;;23.60;99.40;;;;;;5008840;28;209251;-72
2023/05/07 10:57:36;;;;;;;16.77;12.27;;;23.80;98.90;;;;;;5061231;28;20581;-72
2023/05/07 11:00:25;;;;;;;16.48;12.50;;;23.90;96.80;;;;;;4960907;28;209854;-72
2023/05/07 11:03:00;;;;;;;14.43;11.38;;;23.90;97.30;;;;;;5073157;28;20064;-75
2023/05/07 11:05:31;;;;;;;15.38;11.60;;;24.00;97.20;;;;;;4995766;28;171654;-71
2023/05/07 11:08:04;;;;;;;15.80;11.52;;;24.40;97.90;;;;;;5042292;28;208282;-68
2023/05/07 11:10:58;;;;;;;15.68;11.60;;;24.70;97.60;;;;;;5022825;28;20059;-74
2023/05/07 11:13:44;;;;;;;17.10;12.23;;;25.10;97.00;;;;;;5022260;28;212545;-72
2023/05/07 11:16:26;;;;;;;15.80;11.85;;;25.30;97.00;;;;;;5077281;28;20058;-72
2023/05/07 11:18:55;;;;;;;16.05;11.50;;;24.90;96.20;;;;;;5019568;28;209295;-71
2023/05/07 11:21:38;;;;;;;14.73;12.02;;;25.10;97.00;;;;;;5076879;28;20060;-73
2023/05/07 11:24:06;;;;;;;13.55;11.07;;;25.30;96.20;;;;;;5005010;28;222983;-73
2023/05/07 11:26:43;;;;;;;15.00;10.82;;;25.40;97.60;;;;;;5048165;28;20106;-72
2023/05/07 11:29:21;;;;;;;14.02;11.10;;;26.00;96.40;;;;;;4993635;28;216920;-73
2023/05/07 11:31:52;;;;;;;17.60;11.25;;;26.20;96.60;;;;;;5055916;28;20044;-73
2023/05/07 11:34:23;;;;;;;14.23;11.18;;;26.00;96.10;;;;;;5008664;28;210718;-72
2023/05/07 11:36:50;;;;;;;14.63;11.38;;;26.10;96.60;;;;;;5077506;28;20056;-72
2023/05/07 11:39:26;;;;;;;13.15;9.88;;;26.20;95.90;;;;;;5016796;28;209715;-72
2023/05/07 11:41:52;;;;;;;14.85;10.63;;;26.30;96.10;;;;;;5075386;28;20526;-73
2023/05/07 11:44:18;;;;;;;13.45;10.70;;;26.10;95.90;;;;;;5017016;28;212096;-73
2023/05/07 11:46:45;;;;;;;12.88;9.80;;;26.30;96.00;;;;;;5061312;28;20403;-74
2023/05/07 11:49:11;;;;;;;14.30;11.00;;;26.30;95.90;;;;;;5011821;28;213523;-72
2023/05/07 11:51:38;;;;;;;14.20;11.32;;;26.00;95.70;;;;;;5068098;28;20051;-72
2023/05/07 11:54:08;;;;;;;15.00;11.68;;;25.70;95.30;;;;;;5012732;28;205709;-72
2023/05/07 11:56:38;;;;;;;13.45;10.77;;;25.70;95.20;;;;;;5061792;28;20062;-71
2023/05/07 11:59:04;;;;;;;14.95;11.30;;;25.60;95.60;;;;;;4988071;28;249427;-74
2023/05/07 12:01:30;;;;;;;15.00;11.70;;;25.70;95.00;;;;;;5067790;28;20056;-72
2023/05/07 12:03:56;;;;;;;14.48;11.55;;;25.50;95.40;;;;;;5018253;28;210644;-71
2023/05/07 12:06:23;;;;;;;13.88;11.43;;;25.70;94.80;;;;;;5063507;28;20056;-72
2023/05/07 12:08:49;;;;;;;15.20;12.65;;;25.70;95.60;;;;;;5019751;28;212982;-72
2023/05/07 12:11:25;;;;;;;14.82;11.25;;;25.70;94.60;;;;;;5064905;28;20438;-73
2023/05/07 12:13:53;;;;;;;14.48;11.35;;;25.40;94.60;;;;;;5008893;28;208840;-72
2023/05/07 12:16:19;;;;;;;17.42;14.45;;;25.10;95.10;;;;;;5076280;28;20679;-73
2023/05/07 12:18:46;;;;;;;15.57;11.68;;;25.20;95.60;;;;;;5026404;28;210548;-74
2023/05/07 12:21:12;;;;;;;19.20;12.13;;;25.30;95.60;;;;;;5079455;28;20418;-74
2023/05/07 12:23:40;;;;;;;16.70;13.43;;;25.00;95.00;;;;;;5015448;28;213753;-77
2023/05/07 12:26:06;;;;;;;15.13;12.02;;;25.10;95.50;;;;;;5077625;28;20055;-73